Time;durP1;ratioP1;P1;durP2;ratioP2;P2;SDS_P1;SDS_P2;PMS_P1;PMS_P2;Temp;Humidity;BMP_temperature;BMP_pressure;BME280_temperature;BME280_humidity;BME280_pressure;Samples;Min_cycle;Max_cycle;Signal;HPM_P1;HPM_P2
2024/02/11 00:01:34;;;;;;;25.40;8.83;;;10.00;99.90;;;;;;5077185;28;20410;-80
2024/02/11 00:04:01;;;;;;;21.77;7.80;;;10.00;99.90;;;;;;5077703;28;20188;-80
2024/02/11 00:06:27;;;;;;;27.27;8.70;;;10.00;99.90;;;;;;5077318;28;20164;-81
2024/02/11 00:08:52;;;;;;;25.73;8.27;;;10.00;99.90;;;;;;5059755;28;20693;-80
2024/02/11 00:11:18;;;;;;;23.20;7.73;;;10.00;99.90;;;;;;5077132;28;20914;-80
2024/02/11 00:13:45;;;;;;;25.60;8.50;;;10.00;99.90;;;;;;5077416;28;20596;-81
2024/02/11 00:16:11;;;;;;;21.17;8.45;;;10.00;99.90;;;;;;5076677;28;20160;-81
2024/02/11 00:18:37;;;;;;;22.50;9.33;;;10.00;99.90;;;;;;5077100;28;20180;-81
2024/02/11 00:21:04;;;;;;;26.67;10.35;;;10.00;99.90;;;;;;5077185;28;20204;-81
2024/02/11 00:23:30;;;;;;;22.83;9.27;;;10.00;99.90;;;;;;5077556;28;20673;-80
2024/02/11 00:25:56;;;;;;;23.27;9.53;;;10.00;99.90;;;;;;5076620;28;20211;-81
2024/02/11 00:28:21;;;;;;;27.63;10.37;;;10.00;99.90;;;;;;5076955;28;20234;-80
2024/02/11 00:30:50;;;;;;;26.60;9.50;;;10.00;99.90;;;;;;5076447;28;20403;-82
2024/02/11 00:33:19;;;;;;;24.08;10.23;;;10.00;99.90;;;;;;5077088;28;20172;-80
2024/02/11 00:35:46;;;;;;;25.80;10.23;;;10.00;99.90;;;;;;5077425;28;20168;-80
2024/02/11 00:38:14;;;;;;;23.92;10.60;;;10.00;99.90;;;;;;5077148;28;20268;-80
2024/02/11 00:40:40;;;;;;;23.30;9.50;;;10.00;99.90;;;;;;5076805;28;20665;-81
2024/02/11 00:43:07;;;;;;;24.80;10.98;;;10.00;99.90;;;;;;5076357;28;20173;-80
2024/02/11 00:45:33;;;;;;;24.65;10.25;;;10.10;99.90;;;;;;5058497;28;20161;-80
2024/02/11 00:48:03;;;;;;;25.60;10.15;;;10.00;99.90;;;;;;5076836;28;20673;-80
2024/02/11 00:50:31;;;;;;;27.50;9.95;;;10.00;99.90;;;;;;5076519;28;20164;-81
2024/02/11 00:53:05;;;;;;;29.63;10.85;;;10.10;99.90;;;;;;5076935;28;20605;-82
2024/02/11 00:55:33;;;;;;;25.13;12.27;;;10.10;99.90;;;;;;5058833;28;20160;-80
2024/02/11 00:58:00;;;;;;;26.10;11.35;;;10.00;99.90;;;;;;5058829;28;20271;-80
2024/02/11 01:00:25;;;;;;;29.73;12.48;;;10.00;99.90;;;;;;5077134;28;20188;-81
2024/02/11 01:02:51;;;;;;;33.47;10.90;;;10.00;99.90;;;;;;5077050;28;20194;-80
2024/02/11 01:05:19;;;;;;;25.10;9.53;;;10.00;99.90;;;;;;5077014;28;20168;-81
2024/02/11 01:07:45;;;;;;;24.00;10.30;;;10.00;99.90;;;;;;5076178;28;20176;-80
2024/02/11 01:10:13;;;;;;;22.90;9.83;;;10.00;99.90;;;;;;5057968;28;20213;-80
2024/02/11 01:12:44;;;;;;;26.00;11.00;;;10.00;99.90;;;;;;5076600;28;20948;-81
2024/02/11 01:15:12;;;;;;;24.65;10.02;;;10.00;99.90;;;;;;5076279;28;20168;-80
2024/02/11 01:17:41;;;;;;;27.13;11.63;;;10.00;99.90;;;;;;5076736;28;20187;-81
2024/02/11 01:20:13;;;;;;;26.08;10.65;;;10.00;99.90;;;;;;5076530;28;20222;-80
2024/02/11 01:22:41;;;;;;;26.98;11.30;;;10.00;99.90;;;;;;5058011;28;20152;-80
2024/02/11 01:25:07;;;;;;;25.60;10.95;;;10.00;99.90;;;;;;5057792;28;20164;-81
2024/02/11 01:27:33;;;;;;;22.80;9.50;;;10.00;99.90;;;;;;5076753;28;20183;-80
2024/02/11 01:29:59;;;;;;;25.50;10.00;;;10.00;99.90;;;;;;5077129;28;20406;-80
2024/02/11 01:32:25;;;;;;;22.90;9.60;;;9.90;99.90;;;;;;5076587;28;20576;-80
2024/02/11 01:34:51;;;;;;;25.77;9.53;;;9.90;99.90;;;;;;5076053;28;20168;-80
2024/02/11 01:37:17;;;;;;;23.95;11.13;;;9.90;99.90;;;;;;5076361;28;20199;-80
2024/02/11 01:39:42;;;;;;;22.30;9.30;;;9.90;99.90;;;;;;5076724;28;20200;-80
2024/02/11 01:42:08;;;;;;;24.00;9.90;;;9.90;99.90;;;;;;5076147;28;20171;-80
2024/02/11 01:44:34;;;;;;;23.50;10.10;;;9.90;99.90;;;;;;5076068;28;20184;-81
2024/02/11 01:47:02;;;;;;;24.00;9.57;;;9.90;99.90;;;;;;5077025;28;20186;-80
2024/02/11 01:49:28;;;;;;;24.98;9.80;;;9.90;99.90;;;;;;5080845;28;20175;-80
2024/02/11 01:51:55;;;;;;;22.00;9.13;;;9.90;99.90;;;;;;5080428;28;20175;-80
2024/02/11 01:54:22;;;;;;;23.95;10.45;;;9.90;99.90;;;;;;5081123;28;20634;-81
2024/02/11 01:56:51;;;;;;;20.88;8.63;;;9.90;99.90;;;;;;5062953;28;20180;-80
2024/02/11 01:59:18;;;;;;;24.42;9.60;;;9.90;99.90;;;;;;5080488;28;20195;-80
2024/02/11 02:01:45;;;;;;;22.05;8.65;;;9.80;99.90;;;;;;5080377;28;20637;-80
2024/02/11 02:04:11;;;;;;;25.42;9.95;;;9.80;99.90;;;;;;5079923;28;20676;-80
2024/02/11 02:06:37;;;;;;;33.08;9.85;;;9.80;99.90;;;;;;5079608;28;20160;-80
2024/02/11 02:09:03;;;;;;;25.90;10.40;;;9.70;99.90;;;;;;5080220;28;20241;-81
2024/02/11 02:11:30;;;;;;;24.37;9.70;;;9.70;99.90;;;;;;5080309;28;20410;-81
2024/02/11 02:13:55;;;;;;;25.10;9.30;;;9.70;99.90;;;;;;5079902;28;20410;-80
2024/02/11 02:16:24;;;;;;;21.83;8.87;;;9.70;99.90;;;;;;5079930;28;20164;-82
2024/02/11 02:18:51;;;;;;;22.65;8.75;;;9.70;99.90;;;;;;5080543;28;20220;-80
2024/02/11 02:21:18;;;;;;;26.15;9.45;;;9.60;99.90;;;;;;5080030;28;20161;-81
2024/02/11 02:23:47;;;;;;;22.90;8.35;;;9.60;99.90;;;;;;5079302;28;20156;-81
2024/02/11 02:26:14;;;;;;;25.58;10.55;;;9.60;99.90;;;;;;5061791;28;20171;-81
2024/02/11 02:28:39;;;;;;;23.70;9.43;;;9.60;99.90;;;;;;5079716;28;20215;-80
2024/02/11 02:31:07;;;;;;;20.97;8.70;;;9.60;99.90;;;;;;5061629;28;20169;-80
2024/02/11 02:33:36;;;;;;;22.58;8.30;;;9.60;99.90;;;;;;5079854;28;20776;-80
2024/02/11 02:36:02;;;;;;;23.88;8.60;;;9.70;99.90;;;;;;5061129;28;20642;-80
2024/02/11 02:38:28;;;;;;;20.08;8.05;;;9.70;99.90;;;;;;5079031;28;20204;-81
2024/02/11 02:40:53;;;;;;;24.70;8.27;;;9.70;99.90;;;;;;5079490;28;20199;-81
2024/02/11 02:43:19;;;;;;;20.07;7.77;;;9.60;99.90;;;;;;5079505;28;20248;-80
2024/02/11 02:45:45;;;;;;;20.03;7.40;;;9.70;99.90;;;;;;5061303;28;20192;-80
2024/02/11 02:48:11;;;;;;;26.10;8.93;;;9.70;99.90;;;;;;5079065;28;20415;-80
2024/02/11 02:50:37;;;;;;;24.20;8.57;;;9.70;99.90;;;;;;5079614;28;20426;-81
2024/02/11 02:53:03;;;;;;;24.23;8.07;;;9.70;99.90;;;;;;5078664;28;20777;-80
2024/02/11 02:55:29;;;;;;;21.13;8.20;;;9.70;99.90;;;;;;5079112;28;20622;-80
2024/02/11 02:57:55;;;;;;;23.57;8.60;;;9.70;99.90;;;;;;5078366;28;20181;-80
2024/02/11 03:00:21;;;;;;;28.43;9.97;;;9.70;99.90;;;;;;5059849;28;20504;-80
2024/02/11 03:02:48;;;;;;;22.90;8.20;;;9.70;99.90;;;;;;5078769;28;20160;-80
2024/02/11 03:05:14;;;;;;;20.20;7.78;;;9.70;99.90;;;;;;5079323;28;20209;-80
2024/02/11 03:07:40;;;;;;;21.53;7.80;;;9.70;99.90;;;;;;5079130;28;20188;-80
2024/02/11 03:10:17;;;;;;;21.93;8.13;;;9.70;99.90;;;;;;5078771;28;20176;-80
2024/02/11 03:12:43;;;;;;;21.05;8.05;;;9.70;99.90;;;;;;5060234;28;20395;-80
2024/02/11 03:15:10;;;;;;;20.40;7.50;;;9.70;99.90;;;;;;5078642;28;20160;-81
2024/02/11 03:17:36;;;;;;;20.23;7.53;;;9.70;99.90;;;;;;5078057;28;20192;-81
2024/02/11 03:20:03;;;;;;;23.05;7.50;;;9.70;99.90;;;;;;5060395;28;20196;-80
2024/02/11 03:22:28;;;;;;;19.52;6.72;;;9.70;99.90;;;;;;5078811;28;20160;-80
2024/02/11 03:24:54;;;;;;;20.23;7.70;;;9.70;99.90;;;;;;5078171;28;20214;-80
2024/02/11 03:27:23;;;;;;;21.63;7.63;;;9.60;99.90;;;;;;5060437;28;20491;-80
2024/02/11 03:29:49;;;;;;;19.50;7.10;;;9.60;99.90;;;;;;5078132;28;20175;-80
2024/02/11 03:32:16;;;;;;;22.83;7.80;;;9.60;99.90;;;;;;5059736;28;20629;-81
2024/02/11 03:34:41;;;;;;;24.25;8.25;;;9.60;99.90;;;;;;5078251;28;20764;-81
2024/02/11 03:37:07;;;;;;;19.33;6.60;;;9.60;99.90;;;;;;5078502;28;20185;-80
2024/02/11 03:39:34;;;;;;;21.07;7.67;;;9.60;99.90;;;;;;5060093;28;20700;-81
2024/02/11 03:42:00;;;;;;;21.25;7.78;;;9.60;99.90;;;;;;5077409;28;20163;-80
2024/02/11 03:44:26;;;;;;;22.80;7.70;;;9.60;99.90;;;;;;5077545;28;20165;-80
2024/02/11 03:46:52;;;;;;;19.33;7.67;;;9.60;99.90;;;;;;5059819;28;20187;-80
2024/02/11 03:49:17;;;;;;;21.53;8.20;;;9.60;99.90;;;;;;5059937;28;20661;-80
2024/02/11 03:51:43;;;;;;;20.47;7.23;;;9.60;99.90;;;;;;5078024;28;20219;-80
2024/02/11 03:54:09;;;;;;;23.87;7.10;;;9.60;99.90;;;;;;5078544;28;20251;-80
2024/02/11 03:56:39;;;;;;;23.27;6.87;;;9.60;99.90;;;;;;5077816;28;20175;-81
2024/02/11 03:59:10;;;;;;;20.08;6.90;;;9.60;99.90;;;;;;5059767;28;20888;-80
2024/02/11 04:01:36;;;;;;;23.70;6.75;;;9.60;99.90;;;;;;5059960;28;20634;-80
2024/02/11 04:04:02;;;;;;;21.25;6.55;;;9.60;99.90;;;;;;5077638;28;20186;-80
2024/02/11 04:06:30;;;;;;;19.75;7.05;;;9.60;99.90;;;;;;5077482;28;20168;-80
2024/02/11 04:08:56;;;;;;;20.13;7.13;;;9.60;99.90;;;;;;5077826;28;20177;-80
2024/02/11 04:11:26;;;;;;;19.92;6.82;;;9.60;99.90;;;;;;5078074;28;20158;-80
2024/02/11 04:13:54;;;;;;;19.92;6.90;;;9.60;99.90;;;;;;5077862;28;20161;-81
2024/02/11 04:16:22;;;;;;;19.30;7.10;;;9.60;99.90;;;;;;5077399;28;20161;-80
2024/02/11 04:18:49;;;;;;;18.80;6.55;;;9.60;99.90;;;;;;5059585;28;20189;-80
2024/02/11 04:21:15;;;;;;;20.48;6.20;;;9.70;99.90;;;;;;5078350;28;20175;-80
2024/02/11 04:23:43;;;;;;;19.88;6.50;;;9.70;99.90;;;;;;5059615;28;20196;-80
2024/02/11 04:26:10;;;;;;;21.00;6.47;;;9.70;99.90;;;;;;5077922;28;20165;-81
2024/02/11 04:28:36;;;;;;;20.33;6.72;;;9.80;99.90;;;;;;5077456;28;20181;-80
2024/02/11 04:31:09;;;;;;;18.77;6.15;;;9.80;99.90;;;;;;5077883;28;20165;-80
2024/02/11 04:33:46;;;;;;;23.23;6.47;;;9.80;99.90;;;;;;5060005;28;20215;-81
2024/02/11 04:36:16;;;;;;;20.85;6.50;;;9.80;99.90;;;;;;5076710;28;20247;-81
2024/02/11 04:38:44;;;;;;;19.23;6.78;;;9.80;99.90;;;;;;5077048;28;20701;-81
2024/02/11 04:41:10;;;;;;;21.00;6.35;;;9.80;99.90;;;;;;5077353;28;20216;-80
2024/02/11 04:43:36;;;;;;;20.27;6.63;;;9.80;99.90;;;;;;5077187;28;20153;-80
2024/02/11 04:46:03;;;;;;;20.27;5.43;;;9.80;99.90;;;;;;5059461;28;20161;-80
2024/02/11 04:48:32;;;;;;;18.60;5.00;;;9.90;99.90;;;;;;5059350;28;20291;-80
2024/02/11 04:50:59;;;;;;;15.70;3.15;;;9.90;99.90;;;;;;5077515;28;20262;-80
2024/02/11 04:53:27;;;;;;;14.80;2.95;;;9.80;99.90;;;;;;5078000;28;20164;-81
2024/02/11 04:55:53;;;;;;;15.55;2.70;;;9.80;99.90;;;;;;5077598;28;20217;-81
2024/02/11 04:58:19;;;;;;;13.30;1.45;;;9.80;99.90;;;;;;5077688;28;20181;-80
2024/02/11 05:00:47;;;;;;;14.80;1.67;;;9.80;99.90;;;;;;5059149;28;20704;-80
2024/02/11 05:03:17;;;;;;;12.48;0.85;;;9.80;99.90;;;;;;5077325;28;20168;-81
2024/02/11 05:05:43;;;;;;;13.57;0.98;;;9.80;99.90;;;;;;5059025;28;20183;-80
2024/02/11 05:08:10;;;;;;;12.63;0.75;;;9.80;99.90;;;;;;5076458;28;20192;-80
2024/02/11 05:10:39;;;;;;;12.82;1.08;;;9.80;99.90;;;;;;5077381;28;20576;-80
2024/02/11 05:13:05;;;;;;;12.73;0.80;;;9.80;99.90;;;;;;5075881;28;20634;-80
2024/02/11 05:15:38;;;;;;;12.45;0.75;;;9.80;99.90;;;;;;5076414;28;20161;-80
2024/02/11 05:18:05;;;;;;;12.52;0.77;;;9.90;99.90;;;;;;5076428;28;20184;-80
2024/02/11 05:20:31;;;;;;;12.90;0.90;;;9.80;99.90;;;;;;5076057;28;20188;-80
2024/02/11 05:22:58;;;;;;;12.67;0.90;;;9.90;99.90;;;;;;5075005;28;20267;-80
2024/02/11 05:25:26;;;;;;;13.20;0.98;;;10.00;99.90;;;;;;5075608;28;20406;-81
2024/02/11 05:27:55;;;;;;;12.55;0.82;;;10.00;99.90;;;;;;5075252;28;20203;-79
2024/02/11 05:30:23;;;;;;;13.50;1.20;;;10.00;99.90;;;;;;5075967;28;20682;-80
2024/02/11 05:32:58;;;;;;;16.33;1.50;;;9.80;99.90;;;;;;5076142;28;20168;-80
2024/02/11 05:35:25;;;;;;;13.10;1.00;;;9.60;99.90;;;;;;5076220;28;20155;-80
2024/02/11 05:37:57;;;;;;;13.73;1.23;;;9.50;99.90;;;;;;5058066;28;20208;-79
2024/02/11 05:40:27;;;;;;;14.50;1.20;;;9.40;99.90;;;;;;5058168;28;20223;-81
2024/02/11 05:42:56;;;;;;;16.75;1.42;;;9.30;99.90;;;;;;5075276;28;20645;-81
2024/02/11 05:45:23;;;;;;;18.20;1.75;;;9.30;99.90;;;;;;5075833;28;20192;-79
2024/02/11 05:47:50;;;;;;;19.38;1.40;;;9.30;99.90;;;;;;5075175;28;20191;-79
2024/02/11 05:50:16;;;;;;;17.73;1.75;;;9.20;99.90;;;;;;5057929;28;20196;-80
2024/02/11 05:52:43;;;;;;;17.58;2.00;;;9.10;99.90;;;;;;5078157;28;20180;-81
2024/02/11 05:55:11;;;;;;;17.67;2.17;;;9.10;99.90;;;;;;5078372;28;20196;-80
2024/02/11 05:57:39;;;;;;;16.05;1.58;;;9.10;99.90;;;;;;5079975;28;20230;-81
2024/02/11 06:00:12;;;;;;;19.17;2.15;;;9.10;99.90;;;;;;5079132;28;20224;-80
2024/02/11 06:02:42;;;;;;;15.77;1.80;;;9.10;99.90;;;;;;5080230;28;20152;-80
2024/02/11 06:05:15;;;;;;;16.77;2.10;;;9.10;99.90;;;;;;5077484;28;20175;-81
2024/02/11 06:07:50;;;;;;;16.67;1.67;;;9.10;99.90;;;;;;5078615;28;20180;-80
2024/02/11 06:10:17;;;;;;;16.23;1.98;;;9.10;99.90;;;;;;5079559;28;20149;-80
2024/02/11 06:12:45;;;;;;;17.48;2.00;;;9.10;99.90;;;;;;5077632;28;20617;-80
2024/02/11 06:15:13;;;;;;;15.25;2.20;;;9.20;99.90;;;;;;5060054;28;20179;-80
2024/02/11 06:17:42;;;;;;;18.70;2.55;;;9.20;99.90;;;;;;5077543;28;20739;-80
2024/02/11 06:20:13;;;;;;;17.38;2.40;;;9.20;99.90;;;;;;5077262;28;20203;-80
2024/02/11 06:22:39;;;;;;;16.42;2.13;;;9.20;99.90;;;;;;5076445;28;20149;-80
2024/02/11 06:25:06;;;;;;;16.02;2.20;;;9.20;99.90;;;;;;5076137;28;20506;-80
2024/02/11 06:27:32;;;;;;;19.70;3.55;;;9.20;99.90;;;;;;5075436;28;20688;-81
2024/02/11 06:29:58;;;;;;;18.38;2.75;;;9.30;99.90;;;;;;5076502;28;20169;-80
2024/02/11 06:32:24;;;;;;;16.90;2.15;;;9.30;99.90;;;;;;5075742;28;20187;-81
2024/02/11 06:34:52;;;;;;;16.60;2.17;;;9.20;99.90;;;;;;5061024;28;20188;-81
2024/02/11 06:37:19;;;;;;;15.95;2.92;;;9.20;99.90;;;;;;5061279;28;20196;-80
2024/02/11 06:39:44;;;;;;;16.67;2.80;;;9.20;99.90;;;;;;5078642;28;20212;-80
2024/02/11 06:42:10;;;;;;;15.47;2.67;;;9.20;99.90;;;;;;5079487;28;20160;-80
2024/02/11 06:44:39;;;;;;;19.27;2.67;;;9.20;99.90;;;;;;5079452;28;20156;-81
2024/02/11 06:47:10;;;;;;;18.85;2.70;;;9.20;99.90;;;;;;5079011;28;20629;-81
2024/02/11 06:49:40;;;;;;;16.13;2.25;;;9.20;99.90;;;;;;5079512;28;20642;-82
2024/02/11 06:52:15;;;;;;;16.20;2.83;;;9.10;99.90;;;;;;5061106;28;20259;-81
2024/02/11 06:54:40;;;;;;;21.80;3.00;;;9.10;99.90;;;;;;5079885;28;20586;-81
2024/02/11 06:57:06;;;;;;;16.77;3.10;;;9.10;99.90;;;;;;5080079;28;20276;-80
2024/02/11 06:59:33;;;;;;;18.53;2.77;;;9.10;99.90;;;;;;5060441;28;20188;-80
2024/02/11 07:01:59;;;;;;;15.60;2.33;;;9.10;99.90;;;;;;5080691;28;20474;-81
2024/02/11 07:04:27;;;;;;;16.10;2.50;;;9.10;99.90;;;;;;5080432;28;20194;-80
2024/02/11 07:06:53;;;;;;;18.55;2.50;;;9.10;99.90;;;;;;5080837;28;20816;-81
2024/02/11 07:09:22;;;;;;;19.70;3.40;;;9.10;99.90;;;;;;5079904;28;20164;-80
2024/02/11 07:11:51;;;;;;;15.02;2.50;;;9.10;99.90;;;;;;5079688;28;20414;-81
2024/02/11 07:14:18;;;;;;;18.35;2.63;;;9.20;99.90;;;;;;5079414;28;20593;-81
2024/02/11 07:16:44;;;;;;;16.25;2.22;;;9.20;99.90;;;;;;5079892;28;20529;-81
2024/02/11 07:19:10;;;;;;;19.42;2.35;;;9.10;99.90;;;;;;5079544;28;20187;-80
2024/02/11 07:21:38;;;;;;;17.85;2.63;;;9.10;99.90;;;;;;5061242;28;20169;-80
2024/02/11 07:24:05;;;;;;;15.65;2.10;;;9.20;99.90;;;;;;5080299;28;20254;-80
2024/02/11 07:26:30;;;;;;;16.45;2.72;;;9.20;99.90;;;;;;5080456;28;20156;-81
2024/02/11 07:28:56;;;;;;;17.30;3.10;;;9.20;99.90;;;;;;5079753;28;20181;-80
2024/02/11 07:31:22;;;;;;;17.43;1.80;;;9.10;99.90;;;;;;5080606;28;20264;-80
2024/02/11 07:33:49;;;;;;;18.80;2.80;;;9.10;99.90;;;;;;5080521;28;20466;-81
2024/02/11 07:36:18;;;;;;;16.42;2.30;;;9.10;99.90;;;;;;5080077;28;20165;-82
2024/02/11 07:38:46;;;;;;;17.75;2.20;;;9.20;99.90;;;;;;5079322;28;20197;-81
2024/02/11 07:41:12;;;;;;;16.35;2.45;;;9.20;99.90;;;;;;5080378;28;20262;-81
2024/02/11 07:43:38;;;;;;;17.00;2.80;;;9.20;99.90;;;;;;5080957;28;20160;-82
2024/02/11 07:46:05;;;;;;;17.48;2.20;;;9.20;99.90;;;;;;5079758;28;20427;-81
2024/02/11 07:48:31;;;;;;;16.95;2.45;;;9.20;99.90;;;;;;5062200;28;20193;-80
2024/02/11 07:50:57;;;;;;;18.15;2.30;;;9.20;99.90;;;;;;5061558;28;20185;-81
2024/02/11 07:53:22;;;;;;;15.43;2.30;;;9.20;99.90;;;;;;5080199;28;20172;-81
2024/02/11 07:55:48;;;;;;;16.87;2.67;;;9.20;99.90;;;;;;5079521;28;20171;-81
2024/02/11 07:58:14;;;;;;;17.13;2.83;;;9.20;99.90;;;;;;5079945;28;20184;-81
2024/02/11 08:00:40;;;;;;;18.30;2.80;;;9.20;99.90;;;;;;5080058;28;20188;-81
2024/02/11 08:03:09;;;;;;;16.38;2.60;;;9.20;99.90;;;;;;5079729;28;20530;-80
2024/02/11 08:05:37;;;;;;;19.20;3.03;;;9.20;99.90;;;;;;5061825;28;20172;-80
2024/02/11 08:08:03;;;;;;;21.17;2.50;;;9.20;99.90;;;;;;5079393;28;20267;-81
2024/02/11 08:10:29;;;;;;;20.07;2.83;;;9.10;99.90;;;;;;5079811;28;20193;-81
2024/02/11 08:12:55;;;;;;;15.60;2.30;;;9.10;99.90;;;;;;5080219;28;20927;-80
2024/02/11 08:15:21;;;;;;;18.00;2.50;;;9.10;99.90;;;;;;5080126;28;20161;-81
2024/02/11 08:17:46;;;;;;;18.27;2.78;;;9.10;99.90;;;;;;5078890;28;20415;-82
2024/02/11 08:20:12;;;;;;;16.90;3.13;;;9.10;99.90;;;;;;5079665;28;20192;-81
2024/02/11 08:22:38;;;;;;;17.80;3.03;;;9.20;99.90;;;;;;5079860;28;20173;-81
2024/02/11 08:25:08;;;;;;;16.50;2.90;;;9.10;99.90;;;;;;5079910;28;20197;-81
2024/02/11 08:27:35;;;;;;;14.70;2.25;;;9.10;99.90;;;;;;5079291;28;20439;-81
2024/02/11 08:30:01;;;;;;;17.85;2.45;;;9.10;99.90;;;;;;5079776;28;20192;-81
2024/02/11 08:32:27;;;;;;;14.13;2.03;;;9.10;99.90;;;;;;5061381;28;20187;-81
2024/02/11 08:34:53;;;;;;;20.70;3.00;;;9.20;99.90;;;;;;5079676;28;20403;-81
2024/02/11 08:37:18;;;;;;;16.37;2.40;;;9.20;99.90;;;;;;5079386;28;20684;-81
2024/02/11 08:39:44;;;;;;;22.63;2.43;;;9.10;99.90;;;;;;5079342;28;20228;-81
2024/02/11 08:42:10;;;;;;;18.33;2.10;;;9.10;99.90;;;;;;5062168;28;20260;-81
2024/02/11 08:44:36;;;;;;;17.13;2.77;;;9.10;99.90;;;;;;5079343;28;20184;-81
2024/02/11 08:47:02;;;;;;;16.90;2.60;;;9.20;99.90;;;;;;5061179;28;20207;-81
2024/02/11 08:49:31;;;;;;;14.57;2.60;;;9.20;99.90;;;;;;5079103;28;20399;-81
2024/02/11 08:51:56;;;;;;;15.13;2.80;;;9.30;99.90;;;;;;5079259;28;20164;-81
2024/02/11 08:54:22;;;;;;;18.93;3.70;;;9.30;99.90;;;;;;5079816;28;20176;-81
2024/02/11 08:56:49;;;;;;;16.23;3.13;;;9.30;99.90;;;;;;5078161;28;20164;-80
2024/02/11 08:59:14;;;;;;;15.80;3.20;;;9.40;99.90;;;;;;5079843;28;20156;-81
2024/02/11 09:01:48;;;;;;;18.20;4.00;;;9.40;99.90;;;;;;5060540;28;20165;-81
2024/02/11 09:04:13;;;;;;;15.30;3.05;;;9.40;99.90;;;;;;5079016;28;20191;-81
2024/02/11 09:06:39;;;;;;;16.37;3.67;;;9.40;99.90;;;;;;5078213;28;20160;-81
2024/02/11 09:09:06;;;;;;;16.02;3.30;;;9.50;99.90;;;;;;5078644;28;20193;-81
2024/02/11 09:11:31;;;;;;;16.73;2.60;;;9.50;99.90;;;;;;5078741;28;20676;-82
2024/02/11 09:13:58;;;;;;;14.30;2.60;;;9.40;99.90;;;;;;5078582;28;20160;-81
2024/02/11 09:16:26;;;;;;;14.40;2.03;;;9.40;99.90;;;;;;5077626;28;20192;-81
2024/02/11 09:18:52;;;;;;;19.15;2.90;;;9.40;99.90;;;;;;5060855;28;20185;-81
2024/02/11 09:21:17;;;;;;;15.93;2.93;;;9.50;99.90;;;;;;5078176;28;20192;-81
2024/02/11 09:23:43;;;;;;;17.70;2.80;;;9.50;99.90;;;;;;5060126;28;20218;-81
2024/02/11 09:26:10;;;;;;;16.87;3.13;;;9.50;99.90;;;;;;5078544;28;20653;-81
2024/02/11 09:28:35;;;;;;;16.20;3.10;;;9.60;99.90;;;;;;5078839;28;20176;-81
2024/02/11 09:31:02;;;;;;;15.63;4.00;;;9.60;99.90;;;;;;5078548;28;20190;-81
2024/02/11 09:33:28;;;;;;;16.30;2.72;;;9.60;99.90;;;;;;5078620;28;20161;-81
2024/02/11 09:35:54;;;;;;;16.30;2.97;;;9.70;99.90;;;;;;5077960;28;20191;-81
2024/02/11 09:38:21;;;;;;;16.40;3.33;;;9.80;99.90;;;;;;5077947;28;20689;-81
2024/02/11 09:40:49;;;;;;;17.80;4.13;;;9.90;99.90;;;;;;5078684;28;20450;-81
2024/02/11 09:43:16;;;;;;;14.77;2.75;;;9.80;99.90;;;;;;5077841;28;20176;-81
2024/02/11 09:45:47;;;;;;;16.08;2.78;;;9.90;99.90;;;;;;5078269;28;20333;-81
2024/02/11 09:48:15;;;;;;;16.90;3.83;;;10.00;99.90;;;;;;5078217;28;20320;-81
2024/02/11 09:50:44;;;;;;;16.63;3.25;;;9.90;99.90;;;;;;5078756;28;20183;-81
2024/02/11 09:53:14;;;;;;;15.90;2.85;;;9.90;99.90;;;;;;5078499;28;20638;-81
2024/02/11 09:55:42;;;;;;;15.63;2.85;;;9.90;99.90;;;;;;5059725;28;20157;-81
2024/02/11 09:58:08;;;;;;;16.83;2.90;;;10.00;99.90;;;;;;5078171;28;20565;-81
2024/02/11 10:00:34;;;;;;;17.80;3.40;;;9.90;99.90;;;;;;5077885;28;20271;-82
2024/02/11 10:03:02;;;;;;;18.10;3.75;;;9.90;99.90;;;;;;5077930;28;20903;-82
2024/02/11 10:05:33;;;;;;;16.63;3.80;;;9.90;99.90;;;;;;5078405;28;20224;-81
2024/02/11 10:08:01;;;;;;;17.05;3.67;;;9.90;99.90;;;;;;5078951;28;20661;-81
2024/02/11 10:10:27;;;;;;;16.13;3.78;;;10.00;99.90;;;;;;5064644;28;20656;-81
2024/02/11 10:12:57;;;;;;;16.73;4.03;;;10.00;99.90;;;;;;5063559;28;20168;-81
2024/02/11 10:15:25;;;;;;;17.00;3.92;;;10.00;99.90;;;;;;5063402;28;20552;-81
2024/02/11 10:17:51;;;;;;;17.27;3.92;;;10.00;99.90;;;;;;5081464;28;20180;-81
2024/02/11 10:20:17;;;;;;;16.65;3.65;;;10.00;99.90;;;;;;5064008;28;20207;-81
2024/02/11 10:22:43;;;;;;;22.07;4.20;;;10.10;99.90;;;;;;5081860;28;20165;-81
2024/02/11 10:25:11;;;;;;;15.80;3.90;;;10.20;99.90;;;;;;5081382;28;20395;-81
2024/02/11 10:27:37;;;;;;;20.15;4.57;;;10.30;99.90;;;;;;5081453;28;20177;-81
2024/02/11 10:30:10;;;;;;;19.00;4.07;;;10.40;99.90;;;;;;5081667;28;20199;-81
2024/02/11 10:32:39;;;;;;;19.27;4.05;;;10.50;99.90;;;;;;5081772;28;20149;-82
2024/02/11 10:35:05;;;;;;;19.60;3.90;;;10.50;99.90;;;;;;5064360;28;20168;-81
2024/02/11 10:37:45;;;;;;;18.25;4.40;;;10.50;99.90;;;;;;5083000;28;20271;-81
2024/02/11 10:40:11;;;;;;;18.70;4.55;;;10.60;99.90;;;;;;5081754;28;20188;-81
2024/02/11 10:42:41;;;;;;;21.83;5.13;;;10.60;99.90;;;;;;5081515;28;20167;-81
2024/02/11 10:45:09;;;;;;;18.38;4.70;;;10.50;99.90;;;;;;5064373;28;20196;-81
2024/02/11 10:47:36;;;;;;;17.45;4.43;;;10.50;99.90;;;;;;5082210;28;20173;-81
2024/02/11 10:50:03;;;;;;;24.60;5.03;;;10.50;99.90;;;;;;5082145;28;20192;-81
2024/02/11 10:52:36;;;;;;;17.75;3.80;;;10.50;99.90;;;;;;5083013;28;20175;-82
2024/02/11 10:55:08;;;;;;;18.75;4.20;;;10.50;99.90;;;;;;5082932;28;20764;-82
2024/02/11 10:57:47;;;;;;;20.75;5.20;;;10.50;99.90;;;;;;5082882;28;20185;-81
2024/02/11 11:00:20;;;;;;;21.02;4.32;;;10.50;99.90;;;;;;5083300;28;20240;-81
2024/02/11 11:02:49;;;;;;;20.08;4.75;;;10.60;99.90;;;;;;5082264;28;20145;-82
2024/02/11 11:05:20;;;;;;;21.25;4.35;;;10.70;99.90;;;;;;5064089;28;20168;-81
2024/02/11 11:07:51;;;;;;;18.92;5.10;;;10.80;99.90;;;;;;5081450;28;20188;-82
2024/02/11 11:10:18;;;;;;;16.23;3.90;;;10.90;99.90;;;;;;5083649;28;20530;-82
2024/02/11 11:12:47;;;;;;;16.95;4.07;;;10.90;99.90;;;;;;5066468;28;20192;-82
2024/02/11 11:15:20;;;;;;;18.25;4.13;;;11.00;99.90;;;;;;5066353;28;20169;-82
2024/02/11 11:17:48;;;;;;;18.25;3.88;;;11.00;99.90;;;;;;5065624;28;20283;-82
2024/02/11 11:20:15;;;;;;;19.65;4.10;;;11.10;99.90;;;;;;5065183;28;20648;-82
2024/02/11 11:22:48;;;;;;;17.20;4.05;;;11.10;99.90;;;;;;5084411;28;20167;-81
2024/02/11 11:25:16;;;;;;;14.93;3.00;;;11.10;99.90;;;;;;5084953;28;20153;-83
2024/02/11 11:27:42;;;;;;;24.98;3.70;;;11.00;99.90;;;;;;5082586;28;20190;-81
2024/02/11 11:30:10;;;;;;;14.87;2.60;;;11.00;99.90;;;;;;5064550;28;20183;-82
2024/02/11 11:32:48;;;;;;;16.50;3.25;;;10.90;99.90;;;;;;5081999;28;20441;-81
2024/02/11 11:35:16;;;;;;;15.70;3.13;;;11.00;99.90;;;;;;5081906;28;20632;-82
2024/02/11 11:37:43;;;;;;;14.85;2.78;;;11.10;99.90;;;;;;5082130;28;20299;-81
2024/02/11 11:40:10;;;;;;;16.92;2.45;;;11.30;99.90;;;;;;5081158;28;20669;-82
2024/02/11 11:42:35;;;;;;;18.80;2.58;;;11.40;99.90;;;;;;5064577;28;20169;-82
2024/02/11 11:45:08;;;;;;;19.20;3.13;;;11.60;99.90;;;;;;5082466;28;20217;-82
2024/02/11 11:47:34;;;;;;;15.95;2.67;;;11.60;99.90;;;;;;5081746;28;20426;-81
2024/02/11 11:50:01;;;;;;;15.40;2.33;;;11.70;99.90;;;;;;5081725;28;20664;-81
2024/02/11 11:52:27;;;;;;;17.23;1.80;;;11.70;99.90;;;;;;5080998;28;20242;-81
2024/02/11 11:54:52;;;;;;;14.73;1.63;;;11.70;99.90;;;;;;5081806;28;20642;-81
2024/02/11 11:57:18;;;;;;;15.80;2.10;;;11.80;99.90;;;;;;5081572;28;20426;-81
2024/02/11 11:59:54;;;;;;;15.87;1.90;;;11.80;99.90;;;;;;5063938;28;20195;-81
2024/02/11 12:02:20;;;;;;;16.67;2.33;;;11.70;99.90;;;;;;5063941;28;20799;-82
2024/02/11 12:04:46;;;;;;;15.60;2.57;;;11.50;99.90;;;;;;5085158;28;20153;-83
2024/02/11 12:07:12;;;;;;;15.43;1.90;;;11.30;99.90;;;;;;5082232;28;20774;-82
2024/02/11 12:09:37;;;;;;;14.53;1.70;;;11.30;99.90;;;;;;5081895;28;20161;-83
2024/02/11 12:12:04;;;;;;;13.90;1.70;;;11.30;99.90;;;;;;5081124;28;20391;-82
2024/02/11 12:14:30;;;;;;;15.95;1.73;;;11.40;99.90;;;;;;5063643;28;20168;-82
2024/02/11 12:16:56;;;;;;;13.80;1.58;;;11.40;99.90;;;;;;5081611;28;20156;-82
2024/02/11 12:19:25;;;;;;;14.70;2.28;;;11.50;99.90;;;;;;5063191;28;20172;-82
2024/02/11 12:21:51;;;;;;;15.10;2.05;;;11.50;99.90;;;;;;5080686;28;20164;-81
2024/02/11 12:24:17;;;;;;;14.10;1.60;;;11.50;99.90;;;;;;5081852;28;20157;-82
2024/02/11 12:26:42;;;;;;;14.67;2.03;;;11.50;99.90;;;;;;5080535;28;20247;-81
2024/02/11 12:29:08;;;;;;;15.07;1.87;;;11.40;99.90;;;;;;5081362;28;20163;-81
2024/02/11 12:31:35;;;;;;;14.77;1.70;;;11.50;99.90;;;;;;5080605;28;20983;-82
2024/02/11 12:34:01;;;;;;;19.90;2.10;;;11.40;99.90;;;;;;5081342;28;20160;-81
2024/02/11 12:36:27;;;;;;;14.40;1.57;;;11.30;99.90;;;;;;5080031;28;20172;-82
2024/02/11 12:38:57;;;;;;;15.60;1.70;;;11.30;99.90;;;;;;5062569;28;20481;-82
2024/02/11 12:41:25;;;;;;;16.60;1.83;;;11.40;99.90;;;;;;5081103;28;20447;-82
2024/02/11 12:43:52;;;;;;;15.18;1.33;;;11.40;99.90;;;;;;5081580;28;20156;-81